createdAt,value
2023-05-04T00:00:16.413Z,100704.50
2023-05-04T00:00:47.870Z,100707.31
2023-05-04T00:01:19.267Z,100699.69
2023-05-04T00:01:50.711Z,100700.16
2023-05-04T00:02:22.257Z,100700.75
2023-05-04T00:02:53.948Z,100697.22
2023-05-04T00:03:25.687Z,100695.56
2023-05-04T00:03:57.418Z,100700.16
2023-05-04T00:04:29.086Z,100702.50
2023-05-04T00:05:00.605Z,100698.50
2023-05-04T00:05:32.783Z,100702.03
2023-05-04T00:06:04.241Z,100701.44
2023-05-04T00:06:35.727Z,100696.63
2023-05-04T00:07:07.159Z,100699.91
2023-05-04T00:07:38.565Z,100701.22
2023-05-04T00:08:10.084Z,100694.38
2023-05-04T00:08:41.501Z,100694.97
2023-05-04T00:09:15.137Z,100696.03
2023-05-04T00:09:46.567Z,100694.25
2023-05-04T00:10:18.086Z,100694.75
2023-05-04T00:10:52.495Z,100686.03
2023-05-04T00:11:23.909Z,100689.81
2023-05-04T00:11:55.370Z,100690.97
2023-05-04T00:12:27.997Z,100691.22
2023-05-04T00:12:59.454Z,100686.88
2023-05-04T00:13:30.904Z,100686.16
2023-05-04T00:14:05.457Z,100680.16
2023-05-04T00:14:36.920Z,100686.88
2023-05-04T00:15:08.431Z,100682.63
2023-05-04T00:15:39.873Z,100685.56
2023-05-04T00:16:11.403Z,100679.09
2023-05-04T00:16:42.964Z,100680.16
2023-05-04T00:17:14.489Z,100682.50
2023-05-04T00:17:47.690Z,100685.22
2023-05-04T00:18:19.150Z,100682.50
2023-05-04T00:18:50.610Z,100684.41
2023-05-04T00:19:22.019Z,100676.84
2023-05-04T00:19:53.428Z,100674.50
2023-05-04T00:20:24.874Z,100676.38
2023-05-04T00:20:56.292Z,100670.97
2023-05-04T00:21:27.876Z,100675.56
2023-05-04T00:21:59.324Z,100674.75
2023-05-04T00:22:34.748Z,100678.50
2023-05-04T00:23:06.245Z,100678.97
2023-05-04T00:23:37.697Z,100674.25
2023-05-04T00:24:09.139Z,100673.91
2023-05-04T00:24:40.554Z,100674.75
2023-05-04T00:25:12.130Z,100665.81
2023-05-04T00:25:43.568Z,100675.22
2023-05-04T00:26:15.022Z,100668.84
2023-05-04T00:26:46.445Z,100664.16
2023-05-04T00:27:17.895Z,100668.97
2023-05-04T00:27:51.160Z,100668.16
2023-05-04T00:28:22.549Z,100672.75
2023-05-04T00:28:53.954Z,100673.56
2023-05-04T00:29:25.405Z,100672.75
2023-05-04T00:29:59.831Z,100669.22
2023-05-04T00:30:33.609Z,100667.34
2023-05-04T00:31:05.068Z,100671.34
2023-05-04T00:31:36.615Z,100675.94
2023-05-04T00:32:08.107Z,100666.50
2023-05-04T00:32:39.692Z,100672.50
2023-05-04T00:33:13.982Z,100674.03
2023-05-04T00:33:45.416Z,100674.88
2023-05-04T00:34:16.868Z,100666.75
2023-05-04T00:34:50.041Z,100664.97
2023-05-04T00:35:21.479Z,100665.69
2023-05-04T00:35:52.928Z,100665.94
2023-05-04T00:36:24.356Z,100667.22
2023-05-04T00:36:59.622Z,100659.59
2023-05-04T00:37:31.069Z,100665.81
2023-05-04T00:38:02.562Z,100668.28
2023-05-04T00:38:33.985Z,100667.47
2023-05-04T00:39:08.308Z,100665.34
2023-05-04T00:39:39.911Z,100663.94
2023-05-04T00:40:11.325Z,100668.28
2023-05-04T00:40:42.809Z,100669.94
2023-05-04T00:41:14.271Z,100675.09
2023-05-04T00:41:45.673Z,100666.03
2023-05-04T00:42:17.140Z,100667.09
2023-05-04T00:42:48.574Z,100661.69
2023-05-04T00:43:20.051Z,100663.00
2023-05-04T00:43:51.501Z,100666.16
2023-05-04T00:44:22.943Z,100661.81
2023-05-04T00:44:54.399Z,100666.41
2023-05-04T00:45:25.895Z,100668.28
2023-05-04T00:45:57.318Z,100665.81
2023-05-04T00:46:28.818Z,100662.06
2023-05-04T00:47:00.423Z,100663.13
2023-05-04T00:47:31.977Z,100660.53
2023-05-04T00:48:03.495Z,100654.88
2023-05-04T00:48:36.540Z,100658.88
2023-05-04T00:49:08.030Z,100658.41
2023-05-04T00:49:39.453Z,100653.47
2023-05-04T00:50:10.882Z,100661.47
2023-05-04T00:50:42.380Z,100665.00
2023-05-04T00:51:13.795Z,100662.06
2023-05-04T00:51:45.268Z,100655.81
2023-05-04T00:52:16.762Z,100660.75
2023-05-04T00:52:51.214Z,100658.28
2023-05-04T00:53:22.688Z,100658.63
2023-05-04T00:53:54.137Z,100651.09
2023-05-04T00:54:25.555Z,100655.69
2023-05-04T00:54:56.968Z,100660.03
2023-05-04T00:55:28.402Z,100658.41
2023-05-04T00:55:59.858Z,100659.56
2023-05-04T00:56:31.247Z,100657.56
2023-05-04T00:57:03.732Z,100658.28
2023-05-04T00:57:35.180Z,100655.81
2023-05-04T00:58:08.264Z,100653.69
2023-05-04T00:58:39.742Z,100648.75
2023-05-04T00:59:11.812Z,100650.66
2023-05-04T00:59:43.312Z,100650.88
2023-05-04T01:00:14.763Z,100650.06
2023-05-04T01:00:48.062Z,100649.59
2023-05-04T01:01:19.632Z,100643.00
2023-05-04T01:01:51.130Z,100642.53
2023-05-04T01:02:22.694Z,100643.34
2023-05-04T01:02:54.296Z,100646.88
2023-05-04T01:03:25.843Z,100638.28
2023-05-04T01:03:57.349Z,100643.13
2023-05-04T01:04:28.892Z,100641.81
2023-05-04T01:05:00.333Z,100639.59
2023-05-04T01:05:31.748Z,100634.19
2023-05-04T01:06:03.210Z,100633.81
2023-05-04T01:06:36.731Z,100638.28
2023-05-04T01:07:08.204Z,100637.22
2023-05-04T01:07:39.648Z,100641.25
2023-05-04T01:08:11.069Z,100635.34
2023-05-04T01:08:45.499Z,100636.75
2023-05-04T01:09:16.938Z,100633.00
2023-05-04T01:09:48.424Z,100639.69
2023-05-04T01:10:19.857Z,100634.53
2023-05-04T01:10:51.320Z,100632.53
2023-05-04T01:11:22.841Z,100635.59
2023-05-04T01:11:54.296Z,100638.78
2023-05-04T01:12:25.773Z,100634.53
2023-05-04T01:12:57.272Z,100638.63
2023-05-04T01:13:28.754Z,100638.63
2023-05-04T01:14:00.172Z,100636.84
2023-05-04T01:14:31.624Z,100634.63
2023-05-04T01:15:03.089Z,100636.75
2023-05-04T01:15:34.541Z,100641.34
2023-05-04T01:16:05.959Z,100632.88
2023-05-04T01:16:37.371Z,100635.47
2023-05-04T01:17:08.992Z,100644.75
2023-05-04T01:17:40.472Z,100639.81
2023-05-04T01:18:14.189Z,100630.19
2023-05-04T01:18:45.667Z,100634.66
2023-05-04T01:19:17.091Z,100637.59
2023-05-04T01:19:48.581Z,100635.97
2023-05-04T01:20:20.171Z,100637.03
2023-05-04T01:20:54.121Z,100637.03
2023-05-04T01:21:25.560Z,100632.91
2023-05-04T01:21:56.972Z,100635.63
2023-05-04T01:22:28.444Z,100638.66
2023-05-04T01:23:01.003Z,100634.41
2023-05-04T01:23:32.400Z,100633.84
2023-05-04T01:24:03.841Z,100633.00
2023-05-04T01:24:35.285Z,100628.44
2023-05-04T01:25:06.861Z,100633.13
2023-05-04T01:25:38.305Z,100633.34
2023-05-04T01:26:09.711Z,100634.41
2023-05-04T01:26:41.208Z,100628.44
2023-05-04T01:27:12.698Z,100633.34
2023-05-04T01:27:44.280Z,100626.53
2023-05-04T01:28:15.676Z,100628.66
2023-05-04T01:28:49.080Z,100624.06
2023-05-04T01:29:20.561Z,100627.59
2023-05-04T01:29:51.996Z,100628.66
2023-05-04T01:30:23.489Z,100629.84
2023-05-04T01:30:55.057Z,100629.00
2023-05-04T01:31:26.709Z,100626.66
2023-05-04T01:31:58.283Z,100620.91
2023-05-04T01:32:29.744Z,100629.00
2023-05-04T01:33:01.432Z,100627.81
2023-05-04T01:33:32.978Z,100629.69
2023-05-04T01:34:04.574Z,100623.22
2023-05-04T01:34:36.140Z,100622.88
2023-05-04T01:35:07.652Z,100628.53
2023-05-04T01:35:39.179Z,100617.94
2023-05-04T01:36:10.730Z,100628.88
2023-05-04T01:36:42.246Z,100626.31
2023-05-04T01:37:13.688Z,100628.28
2023-05-04T01:37:45.091Z,100628.88
2023-05-04T01:38:16.630Z,100625.81
2023-05-04T01:38:48.118Z,100629.59
2023-05-04T01:39:19.572Z,100627.47
2023-05-04T01:39:51.190Z,100626.06
2023-05-04T01:40:22.602Z,100622.88
2023-05-04T01:40:58.905Z,100624.66
2023-05-04T01:41:30.364Z,100623.94
2023-05-04T01:42:02.015Z,100626.78
2023-05-04T01:42:33.514Z,100626.06
2023-05-04T01:43:05.015Z,100633.94
2023-05-04T01:43:36.452Z,100629.34
2023-05-04T01:44:10.926Z,100631.25
2023-05-04T01:44:42.410Z,100630.06
2023-05-04T01:45:13.842Z,100629.59
2023-05-04T01:45:45.382Z,100632.78
2023-05-04T01:46:16.856Z,100633.34
2023-05-04T01:46:48.365Z,100631.59
2023-05-04T01:47:19.922Z,100629.13
2023-05-04T01:47:51.398Z,100629.59
2023-05-04T01:48:22.950Z,100633.00
2023-05-04T01:48:54.494Z,100632.78
2023-05-04T01:49:25.926Z,100626.31
2023-05-04T01:49:57.574Z,100632.28
2023-05-04T01:50:29.268Z,100624.53
2023-05-04T01:51:00.761Z,100623.59
2023-05-04T01:51:32.177Z,100625.47
2023-05-04T01:52:06.367Z,100627.13
2023-05-04T01:52:37.783Z,100631.13
2023-05-04T01:53:11.772Z,100632.06
2023-05-04T01:53:43.277Z,100626.50
2023-05-04T01:54:14.728Z,100631.72
2023-05-04T01:54:46.291Z,100627.38
2023-05-04T01:55:20.038Z,100627.94
2023-05-04T01:55:51.583Z,100621.59
2023-05-04T01:56:25.896Z,100628.31
2023-05-04T01:56:57.347Z,100619.72
2023-05-04T01:57:28.736Z,100625.13
2023-05-04T01:58:00.265Z,100623.25
2023-05-04T01:58:33.724Z,100627.25
2023-05-04T01:59:05.153Z,100626.44
2023-05-04T01:59:36.533Z,100629.00
2023-05-04T02:00:08.167Z,100625.72
2023-05-04T02:00:45.648Z,100630.56
2023-05-04T02:01:17.108Z,100631.03
2023-05-04T02:01:48.630Z,100633.34
2023-05-04T02:02:24.571Z,100628.06
2023-05-04T02:02:56.136Z,100628.28
2023-05-04T02:03:27.691Z,100625.72
2023-05-04T02:03:59.325Z,100627.81
2023-05-04T02:04:30.876Z,100635.34
2023-05-04T02:05:02.286Z,100624.41
2023-05-04T02:05:34.872Z,100626.78
2023-05-04T02:06:06.818Z,100625.13
2023-05-04T02:06:41.376Z,100629.13
2023-05-04T02:07:15.328Z,100631.25
2023-05-04T02:07:46.739Z,100626.69
2023-05-04T02:08:18.265Z,100627.25
2023-05-04T02:08:49.673Z,100629.38
2023-05-04T02:09:21.109Z,100624.22
2023-05-04T02:09:52.587Z,100626.56
2023-05-04T02:10:24.049Z,100630.34
2023-05-04T02:10:55.550Z,100627.38
2023-05-04T02:11:27.031Z,100626.56
2023-05-04T02:11:58.522Z,100627.72
2023-05-04T02:12:29.996Z,100629.28
2023-05-04T02:13:01.608Z,100630.91
2023-05-04T02:13:33.101Z,100630.69
2023-05-04T02:14:04.600Z,100623.97
2023-05-04T02:14:38.628Z,100624.44
2023-05-04T02:15:10.063Z,100620.34
2023-05-04T02:15:41.597Z,100621.41
2023-05-04T02:16:13.115Z,100622.31
2023-05-04T02:16:44.583Z,100627.16
2023-05-04T02:17:16.072Z,100619.25
2023-05-04T02:17:47.736Z,100620.31
2023-05-04T02:18:19.260Z,100626.78
2023-05-04T02:18:50.675Z,100619.16
2023-05-04T02:19:22.117Z,100627.72
2023-05-04T02:19:53.567Z,100627.50
2023-05-04T02:20:24.979Z,100623.16
2023-05-04T02:20:58.999Z,100623.16
2023-05-04T02:21:30.470Z,100628.66
2023-05-04T02:22:01.920Z,100618.66
2023-05-04T02:22:33.424Z,100622.31
2023-05-04T02:23:04.858Z,100621.13
2023-05-04T02:23:36.383Z,100619.38
2023-05-04T02:24:07.858Z,100619.84
2023-05-04T02:24:39.293Z,100621.84
2023-05-04T02:25:10.734Z,100625.13
2023-05-04T02:25:42.187Z,100618.56
2023-05-04T02:26:13.655Z,100619.72
2023-05-04T02:26:45.053Z,100620.91
2023-05-04T02:27:18.893Z,100614.31
2023-05-04T02:27:50.371Z,100628.66
2023-05-04T02:28:21.828Z,100624.78
2023-05-04T02:28:53.400Z,100622.19
2023-05-04T02:29:24.813Z,100621.03
2023-05-04T02:29:56.222Z,100618.09
2023-05-04T02:30:30.257Z,100621.97
2023-05-04T02:31:01.762Z,100617.16
2023-05-04T02:31:33.314Z,100619.38
2023-05-04T02:32:04.858Z,100617.41
2023-05-04T02:32:39.385Z,100618.56
2023-05-04T02:33:10.790Z,100614.22
2023-05-04T02:33:45.336Z,100616.34
2023-05-04T02:34:19.155Z,100612.47
2023-05-04T02:34:55.931Z,100608.81
2023-05-04T02:35:29.489Z,100611.84
2023-05-04T02:36:00.944Z,100610.44
2023-05-04T02:36:32.387Z,100613.63
2023-05-04T02:37:05.838Z,100612.47
2023-05-04T02:37:38.636Z,100608.81
2023-05-04T02:38:10.180Z,100611.25
2023-05-04T02:38:41.632Z,100608.31
2023-05-04T02:39:13.307Z,100608.22
2023-05-04T02:39:45.211Z,100606.09
2023-05-04T02:40:16.634Z,100607.63
2023-05-04T02:40:48.172Z,100607.03
2023-05-04T02:41:22.226Z,100605.72
2023-05-04T02:41:55.355Z,100610.06
2023-05-04T02:42:29.174Z,100606.19
2023-05-04T02:43:01.847Z,100604.56
2023-05-04T02:43:33.391Z,100602.22
2023-05-04T02:44:04.804Z,100599.75
2023-05-04T02:44:36.313Z,100609.75
2023-05-04T02:45:07.836Z,100604.34
2023-05-04T02:45:39.425Z,100611.97
2023-05-04T02:46:10.926Z,100606.56
2023-05-04T02:46:42.390Z,100602.13
2023-05-04T02:47:13.793Z,100608.22
2023-05-04T02:47:47.519Z,100611.41
2023-05-04T02:48:19.003Z,100611.03
2023-05-04T02:48:50.475Z,100606.19
2023-05-04T02:49:21.963Z,100612.88
2023-05-04T02:49:53.454Z,100610.56
2023-05-04T02:50:24.914Z,100608.09
2023-05-04T02:50:56.461Z,100610.44
2023-05-04T02:51:27.855Z,100603.38
2023-05-04T02:51:59.269Z,100613.63
2023-05-04T02:52:30.747Z,100610.69
2023-05-04T02:53:02.181Z,100614.94
2023-05-04T02:53:33.710Z,100611.06
2023-05-04T02:54:06.676Z,100615.06
2023-05-04T02:54:38.071Z,100607.41
2023-05-04T02:55:09.516Z,100615.28
2023-05-04T02:55:40.932Z,100615.41
2023-05-04T02:56:12.346Z,100611.53
2023-05-04T02:56:43.823Z,100614.56
2023-05-04T02:57:17.529Z,100611.16
2023-05-04T02:57:49.093Z,100608.34
2023-05-04T02:58:20.613Z,100613.28
2023-05-04T02:58:52.120Z,100610.47
2023-05-04T02:59:23.606Z,100616.00
2023-05-04T02:59:55.108Z,100616.47
2023-05-04T03:00:26.579Z,100613.66
2023-05-04T03:00:58.183Z,100615.78
2023-05-04T03:01:29.828Z,100615.28
2023-05-04T03:02:06.736Z,100608.47
2023-05-04T03:02:38.168Z,100613.41
2023-05-04T03:03:09.611Z,100610.13
2023-05-04T03:03:41.150Z,100606.94
2023-05-04T03:04:12.613Z,100616.56
2023-05-04T03:04:44.093Z,100613.03
2023-05-04T03:05:17.585Z,100610.09
2023-05-04T03:05:49.017Z,100609.28
2023-05-04T03:06:20.453Z,100610.09
2023-05-04T03:06:51.869Z,100610.81
2023-05-04T03:07:23.409Z,100607.97
2023-05-04T03:07:54.855Z,100610.69
2023-05-04T03:08:28.114Z,100611.50
2023-05-04T03:08:59.571Z,100608.81
2023-05-04T03:09:31.023Z,100609.50
2023-05-04T03:10:02.461Z,100610.44
2023-05-04T03:10:35.541Z,100610.22
2023-05-04T03:11:07.043Z,100610.44
2023-05-04T03:11:38.564Z,100610.09
2023-05-04T03:12:10.084Z,100611.97
2023-05-04T03:12:41.566Z,100613.53
2023-05-04T03:13:13.144Z,100608.47
2023-05-04T03:13:44.876Z,100608.69
2023-05-04T03:14:16.349Z,100604.94
2023-05-04T03:14:47.804Z,100605.75
2023-05-04T03:15:19.220Z,100601.41
2023-05-04T03:15:50.757Z,100604.94
2023-05-04T03:16:22.223Z,100611.28
2023-05-04T03:16:53.889Z,100600.47
2023-05-04T03:17:25.415Z,100604.44
2023-05-04T03:17:56.966Z,100606.00
2023-05-04T03:19:13.776Z,100598.81
2023-05-04T03:19:45.187Z,100600.47
2023-05-04T03:20:16.598Z,100603.41
2023-05-04T03:20:48.063Z,100600.13
2023-05-04T03:21:19.521Z,100603.31
2023-05-04T03:21:53.878Z,100593.91
2023-05-04T03:22:28.195Z,100600.13
2023-05-04T03:23:02.408Z,100601.66
2023-05-04T03:23:33.840Z,100600.00
2023-05-04T03:24:11.372Z,100590.59
2023-05-04T03:24:42.766Z,100594.72
2023-05-04T03:25:14.186Z,100592.13
2023-05-04T03:25:47.379Z,100587.19
2023-05-04T03:26:18.842Z,100593.41
2023-05-04T03:26:52.899Z,100592.47
2023-05-04T03:27:24.413Z,100596.00
2023-05-04T03:27:58.243Z,100596.50
2023-05-04T03:28:29.678Z,100595.31
2023-05-04T03:29:01.153Z,100594.59
2023-05-04T03:29:35.431Z,100595.06
2023-05-04T03:30:07.134Z,100593.75
2023-05-04T03:30:38.761Z,100597.06
2023-05-04T03:31:10.306Z,100596.81
2023-05-04T03:31:41.927Z,100586.47
2023-05-04T03:32:16.533Z,100596.13
2023-05-04T03:32:48.056Z,100598.00
2023-05-04T03:33:19.560Z,100593.66
2023-05-04T03:33:51.033Z,100592.59
2023-05-04T03:34:24.685Z,100591.78
2023-05-04T03:34:56.113Z,100601.06
2023-05-04T03:35:27.558Z,100597.28
2023-05-04T03:35:58.992Z,100590.38
2023-05-04T03:36:30.450Z,100597.78
2023-05-04T03:37:01.921Z,100590.25
2023-05-04T03:37:33.377Z,100588.84
2023-05-04T03:38:06.681Z,100590.81
2023-05-04T03:38:38.065Z,100585.66
2023-05-04T03:39:12.121Z,100591.88
2023-05-04T03:39:45.827Z,100590.47
2023-05-04T03:40:18.503Z,100584.84
2023-05-04T03:40:49.922Z,100586.94
2023-05-04T03:41:21.349Z,100582.38
2023-05-04T03:41:52.857Z,100589.19
2023-05-04T03:42:24.409Z,100583.09
2023-05-04T03:42:55.871Z,100578.59
2023-05-04T03:43:27.431Z,100586.59
2023-05-04T03:43:58.907Z,100586.13
2023-05-04T03:44:30.429Z,100579.22
2023-05-04T03:45:03.894Z,100588.00
2023-05-04T03:45:35.763Z,100577.44
2023-05-04T03:46:07.295Z,100584.59
2023-05-04T03:46:38.785Z,100581.78
2023-05-04T03:47:10.228Z,100582.38
2023-05-04T03:47:41.679Z,100578.84
2023-05-04T03:48:15.153Z,100584.25
2023-05-04T03:48:46.569Z,100582.25
2023-05-04T03:49:18.029Z,100585.31
2023-05-04T03:49:49.458Z,100579.56
2023-05-04T03:50:20.970Z,100584.38
2023-05-04T03:50:52.414Z,100577.19
2023-05-04T03:51:24.020Z,100579.78
2023-05-04T03:51:55.457Z,100588.63
2023-05-04T03:52:26.921Z,100578.38
2023-05-04T03:53:01.344Z,100580.28
2023-05-04T03:53:32.871Z,100579.56
2023-05-04T03:54:04.332Z,100577.66
2023-05-04T03:54:35.786Z,100577.09
2023-05-04T03:55:07.197Z,100582.59
2023-05-04T03:55:41.801Z,100578.16
2023-05-04T03:56:13.295Z,100580.47
2023-05-04T03:56:44.735Z,100570.63
2023-05-04T03:57:18.683Z,100574.97
2023-05-04T03:57:53.092Z,100575.91
2023-05-04T03:58:24.505Z,100578.38
2023-05-04T03:58:55.953Z,100568.63
2023-05-04T03:59:27.334Z,100573.91
2023-05-04T03:59:58.744Z,100572.97
2023-05-04T04:00:30.200Z,100569.91
2023-05-04T04:01:01.680Z,100571.34
2023-05-04T04:01:34.495Z,100569.22
2023-05-04T04:02:05.935Z,100572.06
2023-05-04T04:02:37.500Z,100573.09
2023-05-04T04:03:11.024Z,100569.34
2023-05-04T04:03:42.698Z,100568.41
2023-05-04T04:04:14.221Z,100566.88
2023-05-04T04:04:47.640Z,100565.09
2023-05-04T04:05:19.105Z,100571.09
2023-05-04T04:05:50.789Z,100566.16
2023-05-04T04:06:23.373Z,100566.16
2023-05-04T04:06:54.855Z,100571.78
2023-05-04T04:07:26.343Z,100573.09
2023-05-04T04:07:57.814Z,100570.16
2023-05-04T04:08:31.571Z,100569.78
2023-05-04T04:09:03.018Z,100561.78
2023-05-04T04:09:37.358Z,100565.31
2023-05-04T04:10:08.768Z,100572.03
2023-05-04T04:10:40.227Z,100566.38
2023-05-04T04:11:11.837Z,100565.56
2023-05-04T04:11:43.300Z,100566.25
2023-05-04T04:12:17.484Z,100562.97
2023-05-04T04:12:48.881Z,100570.97
2023-05-04T04:13:23.518Z,100572.25
2023-05-04T04:13:55.022Z,100568.63
2023-05-04T04:14:26.543Z,100570.50
2023-05-04T04:15:00.750Z,100567.09
2023-05-04T04:15:32.220Z,100573.22
2023-05-04T04:16:03.725Z,100571.69
2023-05-04T04:16:35.318Z,100570.28
2023-05-04T04:17:06.978Z,100572.50
2023-05-04T04:17:38.441Z,100573.91
2023-05-04T04:18:09.911Z,100570.16
2023-05-04T04:18:41.380Z,100564.88
2023-05-04T04:19:13.115Z,100574.28
2023-05-04T04:19:44.573Z,100571.44
2023-05-04T04:20:16.072Z,100571.81
2023-05-04T04:20:49.104Z,100573.69
2023-05-04T04:21:20.531Z,100570.28
2023-05-04T04:21:52.036Z,100566.63
2023-05-04T04:22:23.476Z,100561.22
2023-05-04T04:22:54.930Z,100565.69
2023-05-04T04:23:26.409Z,100568.03
2023-05-04T04:23:57.857Z,100572.63
2023-05-04T04:24:29.319Z,100563.47
2023-05-04T04:25:00.803Z,100562.16
2023-05-04T04:25:32.301Z,100562.06
2023-05-04T04:26:03.728Z,100566.50
2023-05-04T04:26:35.304Z,100565.59
2023-05-04T04:27:06.871Z,100560.63
2023-05-04T04:27:38.331Z,100563.34
2023-05-04T04:28:12.524Z,100567.13
2023-05-04T04:28:43.952Z,100566.53
2023-05-04T04:29:15.400Z,100563.25
2023-05-04T04:29:46.822Z,100567.00
2023-05-04T04:30:18.261Z,100562.53
2023-05-04T04:30:54.595Z,100568.88
2023-05-04T04:31:26.181Z,100561.22
2023-05-04T04:31:57.705Z,100563.56
2023-05-04T04:32:29.307Z,100561.22
2023-05-04T04:33:00.819Z,100568.97
2023-05-04T04:33:32.286Z,100559.59
2023-05-04T04:34:03.738Z,100561.34
2023-05-04T04:34:35.226Z,100575.34
2023-05-04T04:35:06.677Z,100559.47
2023-05-04T04:35:38.091Z,100568.25
2023-05-04T04:36:09.600Z,100564.97
2023-05-04T04:36:41.097Z,100564.38
2023-05-04T04:37:12.507Z,100565.09
2023-05-04T04:37:43.991Z,100570.97
2023-05-04T04:38:15.405Z,100570.63
2023-05-04T04:38:46.835Z,100568.28
2023-05-04T04:39:18.304Z,100568.28
2023-05-04T04:39:49.800Z,100562.78
2023-05-04T04:40:21.253Z,100565.81
2023-05-04T04:40:52.693Z,100568.41
2023-05-04T04:41:27.125Z,100560.41
2023-05-04T04:41:58.557Z,100566.75
2023-05-04T04:42:30.042Z,100567.69
2023-05-04T04:43:04.437Z,100569.09
2023-05-04T04:43:35.855Z,100568.75
2023-05-04T04:44:07.304Z,100568.53
2023-05-04T04:44:38.770Z,100564.31
2023-05-04T04:45:10.223Z,100567.22
2023-05-04T04:45:41.703Z,100573.00
2023-05-04T04:46:15.845Z,100569.34
2023-05-04T04:46:47.537Z,100570.53
2023-05-04T04:47:18.982Z,100571.56
2023-05-04T04:47:50.503Z,100570.06
2023-05-04T04:48:22.020Z,100577.94
2023-05-04T04:48:53.523Z,100570.28
2023-05-04T04:49:24.937Z,100572.41
2023-05-04T04:49:56.333Z,100567.69
2023-05-04T04:50:27.786Z,100575.69
2023-05-04T04:50:59.260Z,100571.47
2023-05-04T04:51:30.745Z,100575.69
2023-05-04T04:52:02.154Z,100577.47
2023-05-04T04:52:33.622Z,100572.28
2023-05-04T04:53:06.625Z,100567.13
2023-05-04T04:53:38.039Z,100575.22
2023-05-04T04:54:09.470Z,100573.81
2023-05-04T04:54:40.913Z,100575.94
2023-05-04T04:55:17.372Z,100574.53
2023-05-04T04:55:48.941Z,100574.41
2023-05-04T04:56:20.376Z,100577.59
2023-05-04T04:56:51.892Z,100574.28
2023-05-04T04:57:23.337Z,100573.94
2023-05-04T04:57:54.776Z,100569.00
2023-05-04T04:58:26.181Z,100581.97
2023-05-04T04:58:57.807Z,100581.34
2023-05-04T04:59:30.778Z,100578.66
2023-05-04T05:00:02.439Z,100576.88
2023-05-04T05:00:34.169Z,100579.69
2023-05-04T05:01:05.756Z,100583.13
2023-05-04T05:01:37.367Z,100579.34
2023-05-04T05:02:08.847Z,100584.19
2023-05-04T05:02:40.346Z,100579.59
2023-05-04T05:03:11.918Z,100581.22
2023-05-04T05:03:43.440Z,100575.47
2023-05-04T05:04:14.916Z,100583.25
2023-05-04T05:04:46.580Z,100578.53
2023-05-04T05:05:18.084Z,100579.00
2023-05-04T05:05:49.552Z,100580.88
2023-05-04T05:06:20.962Z,100579.34
2023-05-04T05:06:52.432Z,100583.59
2023-05-04T05:07:23.956Z,100579.81
2023-05-04T05:07:55.427Z,100582.28
2023-05-04T05:08:29.584Z,100580.53
2023-05-04T05:09:01.043Z,100579.81
2023-05-04T05:09:32.528Z,100584.53
2023-05-04T05:10:04.363Z,100577.22
2023-05-04T05:10:36.109Z,100580.41
2023-05-04T05:11:07.598Z,100578.44
2023-05-04T05:11:42.069Z,100577.72
2023-05-04T05:12:13.574Z,100580.75
2023-05-04T05:12:45.047Z,100576.41
2023-05-04T05:13:16.713Z,100583.13
2023-05-04T05:13:51.417Z,100579.28
2023-05-04T05:14:22.914Z,100581.47
2023-05-04T05:14:54.339Z,100584.69
2023-05-04T05:15:25.843Z,100574.41
2023-05-04T05:15:57.327Z,100573.94
2023-05-04T05:16:28.890Z,100575.75
2023-05-04T05:17:00.499Z,100571.72
2023-05-04T05:17:35.133Z,100568.31
2023-05-04T05:18:09.624Z,100574.78
2023-05-04T05:18:41.202Z,100574.78
2023-05-04T05:19:12.634Z,100572.22
2023-05-04T05:19:53.006Z,100567.72
2023-05-04T05:20:24.480Z,100577.13
2023-05-04T05:20:56.007Z,100578.19
2023-05-04T05:21:30.359Z,100568.78
2023-05-04T05:22:01.847Z,100570.78
2023-05-04T05:22:33.362Z,100568.69
2023-05-04T05:23:07.289Z,100568.78
2023-05-04T05:23:38.709Z,100567.72
2023-05-04T05:24:10.166Z,100564.78
2023-05-04T05:24:41.628Z,100566.91
2023-05-04T05:25:13.224Z,100566.81
2023-05-04T05:25:44.755Z,100562.44
2023-05-04T05:26:16.269Z,100561.97
2023-05-04T05:26:47.741Z,100563.72
2023-05-04T05:27:19.179Z,100561.38
2023-05-04T05:27:50.719Z,100563.06
2023-05-04T05:28:22.191Z,100557.72
2023-05-04T05:28:53.717Z,100559.25
2023-05-04T05:29:25.175Z,100560.91
2023-05-04T05:29:56.656Z,100559.59
2023-05-04T05:30:28.137Z,100558.19
2023-05-04T05:31:02.531Z,100554.69
2023-05-04T05:31:34.070Z,100560.91
2023-05-04T05:32:05.524Z,100558.06
2023-05-04T05:32:39.143Z,100558.47
2023-05-04T05:33:10.736Z,100560.66
2023-05-04T05:33:42.187Z,100563.59
2023-05-04T05:34:13.709Z,100559.97
2023-05-04T05:34:49.416Z,100564.66
2023-05-04T05:35:20.962Z,100564.13
2023-05-04T05:35:52.489Z,100566.66
2023-05-04T05:36:23.972Z,100556.44
2023-05-04T05:36:55.433Z,100565.13
2023-05-04T05:37:26.909Z,100565.75
2023-05-04T05:37:58.412Z,100563.06
2023-05-04T05:38:29.987Z,100558.19
2023-05-04T05:39:01.445Z,100561.97
2023-05-04T05:39:34.391Z,100566.66
2023-05-04T05:40:06.185Z,100556.56
2023-05-04T05:40:37.915Z,100565.00
2023-05-04T05:41:09.388Z,100563.13
2023-05-04T05:41:40.840Z,100566.91
2023-05-04T05:42:12.313Z,100565.59
2023-05-04T05:42:43.752Z,100567.97
2023-05-04T05:43:15.231Z,100561.50
2023-05-04T05:43:46.730Z,100572.06
2023-05-04T05:44:18.188Z,100566.06
2023-05-04T05:44:49.648Z,100565.75
2023-05-04T05:45:21.096Z,100569.84
2023-05-04T05:45:52.564Z,100565.50
2023-05-04T05:46:24.184Z,100565.75
2023-05-04T05:46:57.172Z,100565.75
2023-05-04T05:47:28.701Z,100565.00
2023-05-04T05:48:00.217Z,100569.84
2023-05-04T05:48:31.679Z,100569.84
2023-05-04T05:49:03.158Z,100570.34
2023-05-04T05:49:34.565Z,100568.91
2023-05-04T05:50:06.145Z,100565.13
2023-05-04T05:50:37.830Z,100569.13
2023-05-04T05:51:09.294Z,100568.69
2023-05-04T05:51:40.686Z,100568.47
2023-05-04T05:52:12.122Z,100564.94
2023-05-04T05:52:45.806Z,100568.19
2023-05-04T05:53:17.268Z,100570.91
2023-05-04T05:53:53.380Z,100566.81
2023-05-04T05:54:24.993Z,100564.13
2023-05-04T05:54:56.438Z,100568.47
2023-05-04T05:55:27.898Z,100568.47
2023-05-04T05:56:02.005Z,100570.66
2023-05-04T05:56:33.481Z,100567.97
2023-05-04T05:57:04.921Z,100567.97
2023-05-04T05:57:36.368Z,100567.38
2023-05-04T05:58:07.870Z,100569.00
2023-05-04T05:58:39.465Z,100566.00
2023-05-04T05:59:10.873Z,100567.38
2023-05-04T05:59:42.349Z,100570.53
2023-05-04T06:00:13.778Z,100565.38
2023-05-04T06:00:45.274Z,100569.13
2023-05-04T06:01:18.863Z,100567.63
2023-05-04T06:01:50.263Z,100567.38
2023-05-04T06:02:21.798Z,100567.38
2023-05-04T06:02:53.361Z,100559.84
2023-05-04T06:03:25.019Z,100569.28
2023-05-04T06:03:56.832Z,100568.91
2023-05-04T06:04:28.434Z,100573.25
2023-05-04T06:04:59.982Z,100568.09